Time;durP1;ratioP1;P1;durP2;ratioP2;P2;SDS_P1;SDS_P2;PMS_P1;PMS_P2;Temp;Humidity;BMP_temperature;BMP_pressure;BME280_temperature;BME280_humidity;BME280_pressure;Samples;Min_cycle;Max_cycle;Signal;HPM_P1;HPM_P2
2022/08/24 00:00:56;;;;;;;1.35;0.57;;;;;;;;;;5036974;28;20037;-69
2022/08/24 00:03:23;;;;;;;2.58;0.60;;;;;;;;;;5038126;28;20045;-69
2022/08/24 00:05:49;;;;;;;0.50;0.50;;;;;;;;;;5038379;28;20496;-69
2022/08/24 00:08:15;;;;;;;2.85;0.68;;;;;;;;;;5038484;28;20042;-69
2022/08/24 00:10:42;;;;;;;1.67;0.55;;;;;;;;;;5037860;28;20484;-69
2022/08/24 00:13:08;;;;;;;1.38;0.52;;;;;;;;;;5037889;28;20459;-69
2022/08/24 00:15:34;;;;;;;1.63;0.50;;;;;;;;;;5038008;28;20048;-69
2022/08/24 00:18:00;;;;;;;2.90;0.60;;;;;;;;;;5038662;28;20498;-69
2022/08/24 00:20:27;;;;;;;0.77;0.60;;;;;;;;;;5038282;28;20042;-69
2022/08/24 00:22:54;;;;;;;0.75;0.50;;;;;;;;;;5037780;28;20049;-69
2022/08/24 00:25:20;;;;;;;0.68;0.57;;;;;;;;;;5037615;28;20452;-69
2022/08/24 00:27:46;;;;;;;0.63;0.63;;;;;;;;;;5037689;28;20065;-69
2022/08/24 00:30:14;;;;;;;0.50;0.50;;;;;;;;;;5037676;28;20049;-69
2022/08/24 00:32:41;;;;;;;0.80;0.50;;;;;;;;;;5037698;28;20488;-69
2022/08/24 00:35:08;;;;;;;1.35;0.50;;;;;;;;;;5038009;28;20041;-69
2022/08/24 00:37:34;;;;;;;0.50;0.50;;;;;;;;;;5037381;28;20171;-69
2022/08/24 00:40:00;;;;;;;0.88;0.50;;;;;;;;;;5037921;28;20068;-69
2022/08/24 00:42:26;;;;;;;2.08;0.52;;;;;;;;;;5037389;28;20562;-69
2022/08/24 00:44:53;;;;;;;0.50;0.50;;;;;;;;;;5037489;28;20518;-69
2022/08/24 00:47:25;;;;;;;0.57;0.52;;;;;;;;;;5037558;28;20049;-69
2022/08/24 00:49:56;;;;;;;1.15;0.50;;;;;;;;;;5037453;28;20040;-69
2022/08/24 00:52:23;;;;;;;;;;;;;;;;;;5038416;28;20492;-69
2022/08/24 00:54:52;;;;;;;0.80;0.45;;;;;;;;;;5037298;28;19963;-69
2022/08/24 00:57:19;;;;;;;0.65;0.43;;;;;;;;;;5036929;28;20581;-70
2022/08/24 00:59:52;;;;;;;0.70;0.50;;;;;;;;;;5037308;28;20499;-69
2022/08/24 01:02:19;;;;;;;3.47;0.50;;;;;;;;;;5037163;28;20099;-69
2022/08/24 01:04:49;;;;;;;0.75;0.40;;;;;;;;;;5037240;28;20036;-69
2022/08/24 01:07:15;;;;;;;0.60;0.50;;;;;;;;;;5037190;28;20558;-69
2022/08/24 01:09:41;;;;;;;3.25;0.60;;;;;;;;;;5037081;28;20548;-69
2022/08/24 01:12:08;;;;;;;5.00;0.40;;;;;;;;;;5035573;28;20231;-69
2022/08/24 01:14:34;;;;;;;1.10;0.60;;;;;;;;;;5036927;28;20037;-69
2022/08/24 01:19:47;;;;;;;0.60;0.50;;;;;;;;;;5036397;28;20040;-69
2022/08/24 01:22:28;;;;;;;0.75;0.60;;;;;;;;;;5037255;28;20053;-69
2022/08/24 01:24:55;;;;;;;0.50;0.50;;;;;;;;;;5036414;28;20078;-69
2022/08/24 01:27:22;;;;;;;1.35;0.57;;;;;;;;;;5036245;28;20042;-69
2022/08/24 01:29:49;;;;;;;0.63;0.60;;;;;;;;;;5036342;28;20039;-69
2022/08/24 01:32:16;;;;;;;0.55;0.50;;;;;;;;;;5036661;28;20049;-69
2022/08/24 01:34:42;;;;;;;1.23;0.65;;;;;;;;;;5036581;28;20065;-69
2022/08/24 01:37:10;;;;;;;0.57;0.50;;;;;;;;;;5036240;28;20041;-69
2022/08/24 01:39:43;;;;;;;1.25;0.55;;;;;;;;;;5036439;28;20038;-69
2022/08/24 01:42:10;;;;;;;0.70;0.70;;;;;;;;;;5036156;28;20107;-69
2022/08/24 01:44:37;;;;;;;1.77;0.57;;;;;;;;;;5036137;28;20041;-69
2022/08/24 01:47:04;;;;;;;0.88;0.68;;;;;;;;;;5036500;28;20049;-69
2022/08/24 01:49:32;;;;;;;0.60;0.60;;;;;;;;;;5037086;28;20065;-69
2022/08/24 01:51:58;;;;;;;0.70;0.60;;;;;;;;;;5036152;28;20069;-69
2022/08/24 01:54:25;;;;;;;0.68;0.50;;;;;;;;;;5036225;28;20033;-69
2022/08/24 01:56:51;;;;;;;0.63;0.63;;;;;;;;;;5036327;28;20053;-69
2022/08/24 01:59:19;;;;;;;0.57;0.40;;;;;;;;;;5036214;28;20079;-69
2022/08/24 02:01:49;;;;;;;1.92;0.52;;;;;;;;;;5035913;28;20041;-69
2022/08/24 02:04:15;;;;;;;0.50;0.50;;;;;;;;;;5036105;28;20045;-69
2022/08/24 02:06:43;;;;;;;3.38;0.60;;;;;;;;;;5036546;28;20045;-69
2022/08/24 02:09:09;;;;;;;0.60;0.50;;;;;;;;;;5035572;28;20033;-69
2022/08/24 02:11:36;;;;;;;1.23;0.80;;;;;;;;;;5035872;28;20122;-69
2022/08/24 02:14:02;;;;;;;0.80;0.50;;;;;;;;;;5035404;28;20037;-69
2022/08/24 02:16:28;;;;;;;0.63;0.50;;;;;;;;;;5035729;28;20048;-69
2022/08/24 02:18:55;;;;;;;2.05;0.70;;;;;;;;;;5035811;28;20038;-69
2022/08/24 02:21:21;;;;;;;1.27;0.60;;;;;;;;;;5035308;28;20502;-69
2022/08/24 02:23:47;;;;;;;1.58;0.60;;;;;;;;;;5034873;28;20037;-69
2022/08/24 02:26:13;;;;;;;1.17;0.50;;;;;;;;;;5035918;28;20052;-69
2022/08/24 02:28:39;;;;;;;0.77;0.70;;;;;;;;;;5035641;28;20496;-69
2022/08/24 02:31:06;;;;;;;1.05;0.50;;;;;;;;;;5035574;28;20037;-69
2022/08/24 02:33:36;;;;;;;0.68;0.68;;;;;;;;;;5035515;28;20119;-69
2022/08/24 02:36:02;;;;;;;0.93;0.70;;;;;;;;;;5035164;28;20120;-69
2022/08/24 02:38:29;;;;;;;0.90;0.45;;;;;;;;;;5035631;28;20117;-69
2022/08/24 02:40:56;;;;;;;0.65;0.65;;;;;;;;;;5035389;28;20048;-69
2022/08/24 02:43:23;;;;;;;1.38;0.60;;;;;;;;;;5034727;28;20052;-69
2022/08/24 02:45:50;;;;;;;0.50;0.50;;;;;;;;;;5035287;28;20072;-69
2022/08/24 02:48:16;;;;;;;1.85;0.60;;;;;;;;;;5035887;28;20110;-69
2022/08/24 02:50:44;;;;;;;0.70;0.70;;;;;;;;;;5035140;28;20033;-69
2022/08/24 02:53:12;;;;;;;1.90;0.60;;;;;;;;;;5034922;28;20119;-69
2022/08/24 02:55:40;;;;;;;4.32;0.73;;;;;;;;;;5035889;28;20099;-69
2022/08/24 02:58:06;;;;;;;1.00;0.60;;;;;;;;;;5034610;28;20057;-69
2022/08/24 03:00:33;;;;;;;0.57;0.57;;;;;;;;;;5035092;28;20037;-69
2022/08/24 03:03:00;;;;;;;0.70;0.50;;;;;;;;;;5034899;28;20080;-69
2022/08/24 03:05:26;;;;;;;1.48;0.80;;;;;;;;;;5034917;28;20033;-69
2022/08/24 03:07:52;;;;;;;2.35;0.63;;;;;;;;;;5035082;28;20480;-69
2022/08/24 03:10:18;;;;;;;0.90;0.70;;;;;;;;;;5035206;28;20046;-69
2022/08/24 03:12:45;;;;;;;0.88;0.80;;;;;;;;;;5034430;28;20433;-69
2022/08/24 03:15:11;;;;;;;0.60;0.60;;;;;;;;;;5034567;28;20033;-69
2022/08/24 03:17:37;;;;;;;2.97;0.60;;;;;;;;;;5035213;28;20077;-69
2022/08/24 03:20:04;;;;;;;1.48;0.80;;;;;;;;;;5034911;28;20029;-69
2022/08/24 03:22:31;;;;;;;5.43;0.73;;;;;;;;;;5034656;28;20045;-69
2022/08/24 03:24:57;;;;;;;0.70;0.70;;;;;;;;;;5034666;28;20549;-69
2022/08/24 03:27:23;;;;;;;2.28;0.70;;;;;;;;;;5034877;28;20049;-69
2022/08/24 03:29:49;;;;;;;0.90;0.70;;;;;;;;;;5034748;28;20037;-69
2022/08/24 03:32:15;;;;;;;0.68;0.68;;;;;;;;;;5034970;28;20099;-69
2022/08/24 03:34:41;;;;;;;3.58;0.80;;;;;;;;;;5035790;28;20057;-69
2022/08/24 03:37:08;;;;;;;2.42;0.57;;;;;;;;;;5038469;28;20045;-69
2022/08/24 03:39:34;;;;;;;2.92;0.70;;;;;;;;;;5038694;28;20033;-69
2022/08/24 03:42:00;;;;;;;1.60;0.70;;;;;;;;;;5038783;28;20055;-69
2022/08/24 03:44:26;;;;;;;0.73;0.70;;;;;;;;;;5038588;28;20046;-69
2022/08/24 03:46:53;;;;;;;2.67;0.85;;;;;;;;;;5038669;28;20094;-69
2022/08/24 03:49:20;;;;;;;0.90;0.60;;;;;;;;;;5038320;28;20041;-69
2022/08/24 03:51:46;;;;;;;0.70;0.70;;;;;;;;;;5039341;28;20033;-69
2022/08/24 03:54:13;;;;;;;0.55;0.55;;;;;;;;;;5039021;28;20099;-69
2022/08/24 03:56:39;;;;;;;0.70;0.70;;;;;;;;;;5038617;28;20048;-69
2022/08/24 03:59:06;;;;;;;1.00;0.75;;;;;;;;;;5037954;28;20060;-69
2022/08/24 04:01:33;;;;;;;1.48;0.60;;;;;;;;;;5037988;28;20029;-69
2022/08/24 04:03:59;;;;;;;0.80;0.80;;;;;;;;;;5038401;28;20037;-69
2022/08/24 04:06:25;;;;;;;1.25;0.90;;;;;;;;;;5038739;28;20060;-69
2022/08/24 04:08:52;;;;;;;1.33;1.23;;;;;;;;;;5037645;28;20045;-69
2022/08/24 04:11:23;;;;;;;3.75;0.80;;;;;;;;;;5037531;28;20045;-69
2022/08/24 04:13:50;;;;;;;0.80;0.80;;;;;;;;;;5037486;28;20042;-69
2022/08/24 04:16:18;;;;;;;1.00;0.88;;;;;;;;;;5037799;28;20068;-69
2022/08/24 04:18:45;;;;;;;2.08;0.77;;;;;;;;;;5037467;28;20088;-69
2022/08/24 04:21:19;;;;;;;0.98;0.80;;;;;;;;;;5037720;28;20128;-69
2022/08/24 04:23:45;;;;;;;1.90;0.60;;;;;;;;;;5037071;28;20042;-69
2022/08/24 04:26:12;;;;;;;0.60;0.60;;;;;;;;;;5037914;28;20080;-69
2022/08/24 04:28:38;;;;;;;0.90;0.70;;;;;;;;;;5037619;28;20041;-69
2022/08/24 04:31:04;;;;;;;2.30;0.82;;;;;;;;;;5037700;28;20500;-69
2022/08/24 04:33:31;;;;;;;1.88;0.70;;;;;;;;;;5037485;28;20057;-69
2022/08/24 04:35:57;;;;;;;1.45;0.90;;;;;;;;;;5037659;28;20522;-69
2022/08/24 04:38:24;;;;;;;0.88;0.88;;;;;;;;;;5037465;28;20038;-69
2022/08/24 04:40:50;;;;;;;0.73;0.73;;;;;;;;;;5037383;28;20040;-69
2022/08/24 04:43:17;;;;;;;0.70;0.70;;;;;;;;;;5037069;28;20128;-69
2022/08/24 04:45:45;;;;;;;1.05;0.80;;;;;;;;;;5036545;28;20557;-69
2022/08/24 04:48:11;;;;;;;2.38;0.85;;;;;;;;;;5036998;28;20114;-69
2022/08/24 04:50:39;;;;;;;0.90;0.90;;;;;;;;;;5036860;28;20496;-69
2022/08/24 04:53:06;;;;;;;1.63;0.90;;;;;;;;;;5037159;28;20069;-69
2022/08/24 04:55:33;;;;;;;0.98;0.80;;;;;;;;;;5036978;28;20117;-69
2022/08/24 04:58:00;;;;;;;0.85;0.70;;;;;;;;;;5036915;28;20077;-69
2022/08/24 05:00:26;;;;;;;1.05;0.95;;;;;;;;;;5037810;28;20080;-69
2022/08/24 05:02:52;;;;;;;2.13;0.82;;;;;;;;;;5037066;28;20052;-69
2022/08/24 05:05:18;;;;;;;0.85;0.85;;;;;;;;;;5036931;28;20041;-69
2022/08/24 05:07:44;;;;;;;0.90;0.80;;;;;;;;;;5037770;28;20132;-69
2022/08/24 05:10:10;;;;;;;2.70;0.98;;;;;;;;;;5037288;28;20045;-69
2022/08/24 05:12:37;;;;;;;2.03;0.90;;;;;;;;;;5036587;28;20407;-69
2022/08/24 05:15:04;;;;;;;1.38;0.90;;;;;;;;;;5037010;28;20041;-69
2022/08/24 05:17:30;;;;;;;1.38;1.00;;;;;;;;;;5037281;28;20047;-69
2022/08/24 05:19:57;;;;;;;1.92;1.00;;;;;;;;;;5036891;28;20038;-69
2022/08/24 05:22:23;;;;;;;2.17;0.90;;;;;;;;;;5036380;28;20128;-69
2022/08/24 05:24:50;;;;;;;3.80;0.80;;;;;;;;;;5037397;28;20464;-69
2022/08/24 05:27:17;;;;;;;0.70;0.70;;;;;;;;;;5036356;28;20395;-69
2022/08/24 05:29:43;;;;;;;1.10;1.00;;;;;;;;;;5036719;28;20465;-69
2022/08/24 05:32:10;;;;;;;3.15;1.13;;;;;;;;;;5036692;28;20069;-69
2022/08/24 05:34:36;;;;;;;2.28;0.93;;;;;;;;;;5036668;28;20041;-69
2022/08/24 05:37:03;;;;;;;0.70;0.70;;;;;;;;;;5036567;28;20067;-69
2022/08/24 05:39:30;;;;;;;2.17;0.70;;;;;;;;;;5036471;28;20033;-69
2022/08/24 05:41:58;;;;;;;1.13;0.75;;;;;;;;;;5036184;28;20052;-69
2022/08/24 05:44:25;;;;;;;1.25;0.98;;;;;;;;;;5036028;28;20045;-69
2022/08/24 05:46:53;;;;;;;1.00;0.90;;;;;;;;;;5036925;28;20171;-69
2022/08/24 05:49:19;;;;;;;2.00;0.80;;;;;;;;;;5035668;28;20064;-69
2022/08/24 05:51:45;;;;;;;1.85;0.70;;;;;;;;;;5036039;28;20047;-69
2022/08/24 05:54:12;;;;;;;1.45;1.00;;;;;;;;;;5035684;28;20041;-69
2022/08/24 05:56:39;;;;;;;1.85;0.70;;;;;;;;;;5035814;28;20033;-69
2022/08/24 05:59:05;;;;;;;1.23;0.63;;;;;;;;;;5035709;28;20145;-69
2022/08/24 06:01:32;;;;;;;0.70;0.70;;;;;;;;;;5036057;28;20091;-69
2022/08/24 06:03:59;;;;;;;1.25;0.63;;;;;;;;;;5036392;28;20053;-69
2022/08/24 06:06:25;;;;;;;2.83;0.75;;;;;;;;;;5036073;28;20137;-69
2022/08/24 06:08:54;;;;;;;1.13;0.70;;;;;;;;;;5035942;28;20475;-69
2022/08/24 06:11:24;;;;;;;5.68;0.90;;;;;;;;;;5036120;28;20057;-69
2022/08/24 06:13:51;;;;;;;3.20;0.70;;;;;;;;;;5035754;28;20051;-69
2022/08/24 06:16:17;;;;;;;1.20;0.70;;;;;;;;;;5036128;28;20132;-69
2022/08/24 06:18:43;;;;;;;2.92;0.90;;;;;;;;;;5036132;28;20042;-69
2022/08/24 06:21:12;;;;;;;1.00;0.90;;;;;;;;;;5035477;28;20472;-69
2022/08/24 06:23:38;;;;;;;0.80;0.80;;;;;;;;;;5035337;28;20084;-69
2022/08/24 06:28:51;;;;;;;0.95;0.82;;;;;;;;;;5034962;28;20083;-69
2022/08/24 06:31:17;;;;;;;2.00;1.10;;;;;;;;;;5035245;28;20059;-69
2022/08/24 06:33:43;;;;;;;1.25;1.00;;;;;;;;;;5035545;28;20033;-69
2022/08/24 06:36:09;;;;;;;1.17;1.02;;;;;;;;;;5035139;28;20033;-69
2022/08/24 06:38:36;;;;;;;2.17;0.93;;;;;;;;;;5035779;28;20037;-69
2022/08/24 06:41:02;;;;;;;2.65;1.27;;;;;;;;;;5035095;28;20033;-69
2022/08/24 06:43:28;;;;;;;1.45;1.27;;;;;;;;;;5034857;28;20411;-69
2022/08/24 06:45:55;;;;;;;2.17;1.05;;;;;;;;;;5035247;28;20472;-69
2022/08/24 06:48:22;;;;;;;2.40;1.20;;;;;;;;;;5035331;28;20049;-69
2022/08/24 06:50:48;;;;;;;1.13;1.02;;;;;;;;;;5035178;28;20041;-69
2022/08/24 06:53:15;;;;;;;1.77;1.02;;;;;;;;;;5035170;28;20041;-69
2022/08/24 06:55:56;;;;;;;1.50;1.30;;;;;;;;;;5035073;28;20037;-69
2022/08/24 06:58:22;;;;;;;1.42;1.33;;;;;;;;;;5034383;28;20080;-69
2022/08/24 07:00:49;;;;;;;2.33;1.00;;;;;;;;;;5034303;28;20045;-69
2022/08/24 07:03:15;;;;;;;2.42;1.35;;;;;;;;;;5033669;28;20080;-69
2022/08/24 07:05:49;;;;;;;2.25;1.20;;;;;;;;;;5033886;28;20064;-69
2022/08/24 07:08:15;;;;;;;1.88;1.40;;;;;;;;;;5034281;28;20050;-69
2022/08/24 07:10:41;;;;;;;4.25;1.50;;;;;;;;;;5033846;28;20037;-69
2022/08/24 07:13:10;;;;;;;1.92;1.17;;;;;;;;;;5033432;28;20045;-69
2022/08/24 07:15:36;;;;;;;3.35;1.08;;;;;;;;;;5033491;28;20036;-69
2022/08/24 07:18:02;;;;;;;3.13;1.30;;;;;;;;;;5034073;28;20392;-69
2022/08/24 07:20:31;;;;;;;5.28;1.40;;;;;;;;;;5033984;28;20037;-69
2022/08/24 07:22:57;;;;;;;4.10;1.10;;;;;;;;;;5033461;28;20045;-69
2022/08/24 07:25:23;;;;;;;1.75;1.05;;;;;;;;;;5033736;28;20477;-69
2022/08/24 07:27:50;;;;;;;2.58;1.40;;;;;;;;;;5033212;28;20037;-69
2022/08/24 07:30:17;;;;;;;5.05;1.35;;;;;;;;;;5033367;28;20045;-69
2022/08/24 07:32:43;;;;;;;2.25;1.02;;;;;;;;;;5033226;28;20568;-69
2022/08/24 07:35:09;;;;;;;2.65;1.45;;;;;;;;;;5033589;28;20038;-69
2022/08/24 07:37:35;;;;;;;1.25;1.15;;;;;;;;;;5033872;28;20041;-69
2022/08/24 07:40:01;;;;;;;1.67;1.20;;;;;;;;;;5033562;28;20092;-69
2022/08/24 07:42:27;;;;;;;1.23;1.00;;;;;;;;;;5032999;28;20045;-69
2022/08/24 07:44:54;;;;;;;1.90;1.23;;;;;;;;;;5033208;28;20068;-69
2022/08/24 07:47:20;;;;;;;1.02;1.00;;;;;;;;;;5033114;28;20072;-69
2022/08/24 07:49:46;;;;;;;1.83;0.85;;;;;;;;;;5033675;28;20048;-69
2022/08/24 07:52:13;;;;;;;1.30;1.10;;;;;;;;;;5033335;28;20515;-69
2022/08/24 07:54:39;;;;;;;1.77;1.17;;;;;;;;;;5033317;28;20041;-69
2022/08/24 07:57:06;;;;;;;1.52;1.42;;;;;;;;;;4997129;28;1289040;-71
2022/08/24 07:59:33;;;;;;;1.20;1.10;;;;;;;;;;5033834;28;20581;-69
2022/08/24 08:01:59;;;;;;;3.13;1.05;;;;;;;;;;5034018;28;20050;-69
2022/08/24 08:04:25;;;;;;;3.30;1.40;;;;;;;;;;5034237;28;20073;-69
2022/08/24 08:06:52;;;;;;;1.30;1.20;;;;;;;;;;5033842;28;20120;-69
2022/08/24 08:09:18;;;;;;;1.00;0.85;;;;;;;;;;5034121;28;20049;-69
2022/08/24 08:11:44;;;;;;;1.50;1.40;;;;;;;;;;5034063;28;20068;-69
2022/08/24 08:14:10;;;;;;;3.33;1.50;;;;;;;;;;5033564;28;20443;-69
2022/08/24 08:16:39;;;;;;;1.92;1.30;;;;;;;;;;5034027;28;20041;-69
2022/08/24 08:19:06;;;;;;;3.42;1.20;;;;;;;;;;5034135;28;20045;-69
2022/08/24 08:24:19;;;;;;;1.70;1.17;;;;;;;;;;5037219;28;20044;-69
2022/08/24 08:26:49;;;;;;;2.03;1.10;;;;;;;;;;5038250;28;20092;-69
2022/08/24 08:29:17;;;;;;;5.55;1.30;;;;;;;;;;5037227;28;20037;-69
2022/08/24 08:31:43;;;;;;;3.67;1.30;;;;;;;;;;5037427;28;20030;-69
2022/08/24 08:34:09;;;;;;;2.42;1.23;;;;;;;;;;5037496;28;20034;-69
2022/08/24 08:36:40;;;;;;;3.38;1.35;;;;;;;;;;5037026;28;20033;-69
2022/08/24 08:39:07;;;;;;;2.42;1.27;;;;;;;;;;5037518;28;20077;-69
2022/08/24 08:41:51;;;;;;;4.00;1.20;;;;;;;;;;5037023;28;20048;-69
2022/08/24 08:44:25;;;;;;;5.10;1.30;;;;;;;;;;5037309;28;20102;-69
2022/08/24 08:47:05;;;;;;;3.40;1.75;;;;;;;;;;5037805;28;20037;-69
2022/08/24 08:49:50;;;;;;;2.22;1.48;;;;;;;;;;5037567;28;20049;-69
2022/08/24 08:52:23;;;;;;;2.60;1.30;;;;;;;;;;5037105;28;20037;-69
2022/08/24 08:54:58;;;;;;;7.38;1.65;;;;;;;;;;5036800;28;20603;-69
2022/08/24 08:57:24;;;;;;;2.58;1.38;;;;;;;;;;5037119;28;20045;-70
2022/08/24 09:00:10;;;;;;;4.50;1.50;;;;;;;;;;5037525;28;20091;-69
2022/08/24 09:02:51;;;;;;;5.25;1.52;;;;;;;;;;5037017;28;20081;-69
2022/08/24 09:05:29;;;;;;;5.28;1.60;;;;;;;;;;5037252;28;20504;-69
2022/08/24 09:08:07;;;;;;;2.92;1.33;;;;;;;;;;5036814;28;20069;-69
2022/08/24 09:10:53;;;;;;;2.67;1.50;;;;;;;;;;5036241;28;20037;-69
2022/08/24 09:13:38;;;;;;;3.53;1.50;;;;;;;;;;5036495;28;20033;-69
2022/08/24 09:16:26;;;;;;;6.40;1.55;;;;;;;;;;5037294;28;20034;-69
2022/08/24 09:19:06;;;;;;;4.70;1.40;;;;;;;;;;5036063;28;20041;-69
2022/08/24 09:21:50;;;;;;;2.70;1.23;;;;;;;;;;5036913;28;20048;-69
2022/08/24 09:24:20;;;;;;;2.88;1.35;;;;;;;;;;5036633;28;20041;-69
2022/08/24 09:27:06;;;;;;;3.20;1.30;;;;;;;;;;5036303;28;20030;-69
2022/08/24 09:29:43;;;;;;;7.35;2.08;;;;;;;;;;5036358;28;20049;-69
2022/08/24 09:32:27;;;;;;;6.97;1.60;;;;;;;;;;5035215;28;20046;-69
2022/08/24 09:34:55;;;;;;;5.78;1.80;;;;;;;;;;5036954;28;20495;-69
2022/08/24 09:37:40;;;;;;;5.45;1.50;;;;;;;;;;5036118;28;20441;-69
2022/08/24 09:40:09;;;;;;;6.55;1.30;;;;;;;;;;5035951;28;20056;-69
2022/08/24 09:43:11;;;;;;;4.65;1.45;;;;;;;;;;5036018;28;20103;-69
2022/08/24 09:45:40;;;;;;;8.20;1.70;;;;;;;;;;4974844;28;20050;-69
2022/08/24 09:48:09;;;;;;;3.38;1.60;;;;;;;;;;5024546;28;20504;-69
2022/08/24 09:51:13;;;;;;;3.08;1.30;;;;;;;;;;5036658;28;20045;-69
2022/08/24 09:53:42;;;;;;;6.25;1.77;;;;;;;;;;4975021;28;20509;-69
2022/08/24 09:56:27;;;;;;;5.13;1.50;;;;;;;;;;4974631;28;20098;-69
2022/08/24 09:58:59;;;;;;;4.78;1.48;;;;;;;;;;5011752;28;20057;-69
2022/08/24 10:01:43;;;;;;;4.18;1.15;;;;;;;;;;5035895;28;20044;-69
2022/08/24 10:04:10;;;;;;;3.20;1.35;;;;;;;;;;5036056;28;20045;-69
2022/08/24 10:07:01;;;;;;;3.53;1.23;;;;;;;;;;5035388;28;20045;-69
2022/08/24 10:09:39;;;;;;;4.78;1.63;;;;;;;;;;5036273;28;20033;-69
2022/08/24 10:12:12;;;;;;;4.25;1.77;;;;;;;;;;5035499;28;20053;-69
2022/08/24 10:14:41;;;;;;;1.20;1.10;;;;;;;;;;5035575;28;20056;-69
2022/08/24 10:17:26;;;;;;;3.95;1.70;;;;;;;;;;5035269;28;20519;-69
2022/08/24 10:20:02;;;;;;;1.98;1.35;;;;;;;;;;5035528;28;20045;-69
2022/08/24 10:22:52;;;;;;;2.35;1.25;;;;;;;;;;5035073;28;20416;-69
2022/08/24 10:25:24;;;;;;;2.90;1.25;;;;;;;;;;5035475;28;20050;-69
2022/08/24 10:27:59;;;;;;;1.38;1.27;;;;;;;;;;5035548;28;20492;-69
2022/08/24 10:30:43;;;;;;;2.13;1.20;;;;;;;;;;5035356;28;20064;-69
2022/08/24 10:33:16;;;;;;;1.60;1.08;;;;;;;;;;5035818;28;20072;-69
2022/08/24 10:35:51;;;;;;;3.63;1.40;;;;;;;;;;5035495;28;20120;-69
2022/08/24 10:41:28;;;;;;;3.88;1.52;;;;;;;;;;5034653;28;20535;-69
2022/08/24 10:44:13;;;;;;;4.75;1.50;;;;;;;;;;5034625;28;20057;-69
2022/08/24 10:46:43;;;;;;;5.10;1.60;;;;;;;;;;5034634;28;20037;-69
2022/08/24 10:49:27;;;;;;;1.90;1.30;;;;;;;;;;5034892;28;20034;-69
2022/08/24 10:51:56;;;;;;;5.07;1.17;;;;;;;;;;5034604;28;20037;-69
2022/08/24 10:54:23;;;;;;;2.60;1.63;;;;;;;;;;5034666;28;20072;-69
2022/08/24 10:57:05;;;;;;;1.80;1.50;;;;;;;;;;5034796;28;20079;-69
2022/08/24 10:59:34;;;;;;;1.50;1.40;;;;;;;;;;5035385;28;20103;-69
2022/08/24 11:02:04;;;;;;;2.58;1.48;;;;;;;;;;5034611;28;20057;-69
2022/08/24 11:04:31;;;;;;;2.13;1.40;;;;;;;;;;5034748;28;20063;-69
2022/08/24 11:07:09;;;;;;;3.15;1.30;;;;;;;;;;5034425;28;20152;-69
2022/08/24 11:09:50;;;;;;;2.33;1.50;;;;;;;;;;5034601;28;20112;-69
2022/08/24 11:12:30;;;;;;;3.85;1.58;;;;;;;;;;5034932;28;20045;-69
2022/08/24 11:15:01;;;;;;;2.03;1.27;;;;;;;;;;5034561;28;20113;-69
2022/08/24 11:17:31;;;;;;;2.00;1.27;;;;;;;;;;5034296;28;20052;-69
2022/08/24 11:19:58;;;;;;;1.85;1.40;;;;;;;;;;5035133;28;20044;-69
2022/08/24 11:22:32;;;;;;;2.00;1.33;;;;;;;;;;5034382;28;20072;-69
2022/08/24 11:25:00;;;;;;;12.15;1.63;;;;;;;;;;5034548;28;20046;-69
2022/08/24 11:27:34;;;;;;;2.92;1.30;;;;;;;;;;5034237;28;20087;-69
2022/08/24 11:30:04;;;;;;;1.38;1.25;;;;;;;;;;5034749;28;20503;-69
2022/08/24 11:32:30;;;;;;;3.05;1.50;;;;;;;;;;5034432;28;20118;-69
2022/08/24 11:35:00;;;;;;;2.42;1.40;;;;;;;;;;5034379;28;20195;-69
2022/08/24 11:37:34;;;;;;;3.08;1.58;;;;;;;;;;5033797;28;20045;-69
2022/08/24 11:40:01;;;;;;;3.03;1.45;;;;;;;;;;5034642;28;20051;-69
2022/08/24 11:42:45;;;;;;;3.05;1.30;;;;;;;;;;5034178;28;20440;-69
2022/08/24 11:45:16;;;;;;;3.53;1.50;;;;;;;;;;5034481;28;20049;-69
2022/08/24 11:47:52;;;;;;;2.10;1.42;;;;;;;;;;5034627;28;20037;-69
2022/08/24 11:50:28;;;;;;;2.95;1.38;;;;;;;;;;5033974;28;20056;-69
2022/08/24 11:52:54;;;;;;;2.90;1.30;;;;;;;;;;5034173;28;20499;-69
2022/08/24 11:55:27;;;;;;;2.10;1.25;;;;;;;;;;5034193;28;20044;-69
2022/08/24 11:57:59;;;;;;;2.08;1.30;;;;;;;;;;5038146;28;20064;-69
2022/08/24 12:00:29;;;;;;;2.15;1.40;;;;;;;;;;5038702;28;20060;-69
2022/08/24 12:03:02;;;;;;;1.90;1.60;;;;;;;;;;5037464;28;20046;-69
2022/08/24 12:05:29;;;;;;;2.75;1.27;;;;;;;;;;5038072;28;20496;-69
2022/08/24 12:07:58;;;;;;;1.75;1.40;;;;;;;;;;5037674;28;20047;-69
2022/08/24 12:10:24;;;;;;;2.58;1.38;;;;;;;;;;5037980;28;20069;-69
2022/08/24 12:13:03;;;;;;;2.70;1.40;;;;;;;;;;5037343;28;20037;-69
2022/08/24 12:15:39;;;;;;;3.40;1.58;;;;;;;;;;5037772;28;20034;-69
2022/08/24 12:18:08;;;;;;;2.10;1.33;;;;;;;;;;5037613;28;20053;-69
2022/08/24 12:20:40;;;;;;;3.60;1.38;;;;;;;;;;5038524;28;20030;-69
2022/08/24 12:23:32;;;;;;;2.92;1.30;;;;;;;;;;5037353;28;20049;-69
2022/08/24 12:26:01;;;;;;;2.85;1.38;;;;;;;;;;5034877;28;20124;-69
2022/08/24 12:28:30;;;;;;;2.45;1.20;;;;;;;;;;5036896;28;20041;-69
2022/08/24 12:30:59;;;;;;;3.17;1.50;;;;;;;;;;5037227;28;20388;-69
2022/08/24 12:33:33;;;;;;;3.35;1.10;;;;;;;;;;5037250;28;20045;-69
2022/08/24 12:36:02;;;;;;;1.48;1.30;;;;;;;;;;5037780;28;20156;-69
2022/08/24 12:38:32;;;;;;;4.82;1.50;;;;;;;;;;5037127;28;20037;-69
2022/08/24 12:41:05;;;;;;;6.40;1.40;;;;;;;;;;5037206;28;20049;-69
2022/08/24 12:43:31;;;;;;;1.40;1.25;;;;;;;;;;5036802;28;20403;-69
2022/08/24 12:46:00;;;;;;;2.08;1.23;;;;;;;;;;5037595;28;20041;-69
2022/08/24 12:48:41;;;;;;;5.25;1.38;;;;;;;;;;5036673;28;20037;-69
2022/08/24 12:51:10;;;;;;;3.15;1.38;;;;;;;;;;5036850;28;20436;-69
2022/08/24 12:54:02;;;;;;;4.32;1.40;;;;;;;;;;5036839;28;20042;-69
2022/08/24 12:56:31;;;;;;;2.40;1.20;;;;;;;;;;5013745;28;20052;-69
2022/08/24 12:59:00;;;;;;;1.55;1.20;;;;;;;;;;5036518;28;20052;-69
2022/08/24 13:01:28;;;;;;;6.55;1.38;;;;;;;;;;5036737;28;20504;-69
2022/08/24 13:04:03;;;;;;;2.20;1.30;;;;;;;;;;5037444;28;20056;-69
2022/08/24 13:06:48;;;;;;;3.15;1.20;;;;;;;;;;5036626;28;20107;-69
2022/08/24 13:09:27;;;;;;;2.22;1.30;;;;;;;;;;5036938;28;20041;-69
2022/08/24 13:11:54;;;;;;;2.15;1.20;;;;;;;;;;5037266;28;20053;-69
2022/08/24 13:14:23;;;;;;;2.15;1.15;;;;;;;;;;5036655;28;20040;-69
2022/08/24 13:16:55;;;;;;;2.25;1.30;;;;;;;;;;5036454;28;20046;-69
2022/08/24 13:19:24;;;;;;;2.08;1.15;;;;;;;;;;5036978;28;20063;-69
2022/08/24 13:21:52;;;;;;;5.80;1.30;;;;;;;;;;5036266;28;20095;-69
2022/08/24 13:24:28;;;;;;;2.45;1.40;;;;;;;;;;5037123;28;20037;-69
2022/08/24 13:27:12;;;;;;;2.58;1.40;;;;;;;;;;5036922;28;20065;-69
2022/08/24 13:29:44;;;;;;;1.95;1.40;;;;;;;;;;5036530;28;20041;-69
2022/08/24 13:32:20;;;;;;;1.30;1.13;;;;;;;;;;5036205;28;20087;-69
2022/08/24 13:34:47;;;;;;;2.88;1.48;;;;;;;;;;5036799;28;20064;-69
2022/08/24 13:37:21;;;;;;;1.42;1.30;;;;;;;;;;5036068;28;20044;-69
2022/08/24 13:40:09;;;;;;;3.28;1.30;;;;;;;;;;5036752;28;20034;-69
2022/08/24 13:42:35;;;;;;;1.33;1.23;;;;;;;;;;5036404;28;20077;-69
2022/08/24 13:45:19;;;;;;;1.88;1.23;;;;;;;;;;5035845;28;20514;-69
2022/08/24 13:47:45;;;;;;;4.10;1.30;;;;;;;;;;5035618;28;20037;-69
2022/08/24 13:50:30;;;;;;;2.70;1.45;;;;;;;;;;5036694;28;20467;-69
2022/08/24 13:53:15;;;;;;;3.42;1.40;;;;;;;;;;5036084;28;20045;-69
2022/08/24 13:55:41;;;;;;;2.65;1.48;;;;;;;;;;5036307;28;20087;-69
2022/08/24 13:58:15;;;;;;;2.65;1.15;;;;;;;;;;5035552;28;20107;-69
2022/08/24 14:00:45;;;;;;;4.63;1.85;;;;;;;;;;5036206;28;20102;-69
2022/08/24 14:03:31;;;;;;;3.13;1.50;;;;;;;;;;5035460;28;20045;-69
2022/08/24 14:06:05;;;;;;;2.88;1.35;;;;;;;;;;5035431;28;20447;-69
2022/08/24 14:08:50;;;;;;;1.70;1.50;;;;;;;;;;5035804;28;20073;-69
2022/08/24 14:11:33;;;;;;;1.55;1.45;;;;;;;;;;5035642;28;20049;-69
2022/08/24 14:14:17;;;;;;;1.63;1.50;;;;;;;;;;5034923;28;20045;-69
2022/08/24 14:19:28;;;;;;;2.38;1.20;;;;;;;;;;5034492;28;20033;-69
2022/08/24 14:22:00;;;;;;;4.15;1.42;;;;;;;;;;5036207;28;20041;-69
2022/08/24 14:24:42;;;;;;;2.22;1.30;;;;;;;;;;5035108;28;20033;-69
2022/08/24 14:27:32;;;;;;;2.03;1.25;;;;;;;;;;5034938;28;20046;-69
2022/08/24 14:30:16;;;;;;;6.40;1.92;;;;;;;;;;5027054;28;20041;-69
2022/08/24 14:32:58;;;;;;;3.42;1.10;;;;;;;;;;5035282;28;20120;-69
2022/08/24 14:35:43;;;;;;;4.80;1.30;;;;;;;;;;5035300;28;20514;-69
2022/08/24 14:38:09;;;;;;;1.50;1.30;;;;;;;;;;5036036;28;20095;-69
2022/08/24 14:40:41;;;;;;;1.50;1.40;;;;;;;;;;5035051;28;20128;-69
2022/08/24 14:43:10;;;;;;;1.33;1.23;;;;;;;;;;5035021;28;20512;-69
2022/08/24 14:45:55;;;;;;;2.35;1.30;;;;;;;;;;5035361;28;20045;-69
2022/08/24 14:48:21;;;;;;;7.53;1.52;;;;;;;;;;5035292;28;20140;-69
2022/08/24 14:50:59;;;;;;;5.18;1.33;;;;;;;;;;5035003;28;20491;-69
2022/08/24 14:53:40;;;;;;;1.30;1.20;;;;;;;;;;5034964;28;20041;-69
2022/08/24 14:56:07;;;;;;;6.15;1.30;;;;;;;;;;5034952;28;20045;-69
2022/08/24 14:58:49;;;;;;;2.47;1.50;;;;;;;;;;5034491;28;20057;-69
2022/08/24 15:01:23;;;;;;;1.10;0.93;;;;;;;;;;5035250;28;20048;-69
2022/08/24 15:04:02;;;;;;;2.40;1.08;;;;;;;;;;5034358;28;20107;-69
2022/08/24 15:06:49;;;;;;;2.63;1.35;;;;;;;;;;5034538;28;20125;-69
2022/08/24 15:09:18;;;;;;;2.78;1.20;;;;;;;;;;5034427;28;20065;-69
2022/08/24 15:11:45;;;;;;;5.65;1.40;;;;;;;;;;5034431;28;20041;-69
2022/08/24 15:14:20;;;;;;;2.65;1.20;;;;;;;;;;5034215;28;20044;-69
2022/08/24 15:17:00;;;;;;;5.75;1.20;;;;;;;;;;5034913;28;20068;-69